Time;durP1;ratioP1;P1;durP2;ratioP2;P2;SDS_P1;SDS_P2;PMS_P1;PMS_P2;Temp;Humidity;BMP_temperature;BMP_pressure;BME280_temperature;BME280_humidity;BME280_pressure;Samples;Min_cycle;Max_cycle;Signal;HPM_P1;HPM_P2
2023/01/08 00:02:23;;;;;;;4.75;2.67;;;8.90;99.90;;;;;;5012404;28;20034;-78
2023/01/08 00:04:49;;;;;;;7.10;2.65;;;8.90;99.90;;;;;;5013045;28;20101;-78
2023/01/08 00:07:14;;;;;;;3.17;2.08;;;8.90;99.90;;;;;;5012858;28;20105;-78
2023/01/08 00:09:40;;;;;;;6.03;2.38;;;8.90;99.90;;;;;;5019785;28;20038;-78
2023/01/08 00:12:06;;;;;;;4.05;2.35;;;8.90;99.90;;;;;;5020552;28;20030;-78
2023/01/08 00:14:32;;;;;;;5.30;2.60;;;8.90;99.90;;;;;;5019338;28;20563;-78
2023/01/08 00:16:57;;;;;;;5.90;2.40;;;8.80;99.90;;;;;;5011836;28;20116;-77
2023/01/08 00:19:23;;;;;;;4.72;1.70;;;8.80;99.90;;;;;;5012513;28;20037;-78
2023/01/08 00:21:49;;;;;;;7.40;3.22;;;8.80;99.90;;;;;;5011647;28;20053;-78
2023/01/08 00:24:15;;;;;;;4.32;2.75;;;8.80;99.90;;;;;;5012235;28;20048;-78
2023/01/08 00:26:40;;;;;;;4.20;2.60;;;8.80;99.90;;;;;;5011202;28;20025;-78
2023/01/08 00:29:06;;;;;;;6.35;2.38;;;8.70;99.90;;;;;;5012297;28;20532;-78
2023/01/08 00:31:32;;;;;;;8.68;3.25;;;8.70;99.90;;;;;;5011554;28;20032;-78
2023/01/08 00:33:57;;;;;;;6.55;3.08;;;8.70;99.90;;;;;;5002726;28;20544;-78
2023/01/08 00:36:23;;;;;;;5.80;2.53;;;8.80;99.90;;;;;;5011194;28;20045;-78
2023/01/08 00:38:49;;;;;;;5.70;2.70;;;8.80;99.90;;;;;;5012213;28;20026;-78
2023/01/08 00:41:16;;;;;;;4.10;2.60;;;8.80;99.90;;;;;;5009945;28;20056;-78
2023/01/08 00:43:41;;;;;;;4.90;2.55;;;8.80;99.90;;;;;;5002297;28;20026;-78
2023/01/08 00:46:08;;;;;;;3.05;2.13;;;8.80;99.90;;;;;;5011288;28;20052;-78
2023/01/08 00:48:37;;;;;;;4.15;2.55;;;8.80;99.90;;;;;;5011711;28;20544;-79
2023/01/08 00:51:05;;;;;;;4.82;2.13;;;8.80;99.90;;;;;;5025081;28;20072;-78
2023/01/08 00:53:31;;;;;;;5.20;2.00;;;8.80;99.90;;;;;;5002336;28;20034;-78
2023/01/08 00:56:06;;;;;;;3.63;1.88;;;8.80;99.90;;;;;;5024616;28;20064;-78
2023/01/08 00:58:32;;;;;;;9.35;2.38;;;8.90;99.90;;;;;;5011265;28;20038;-78
2023/01/08 01:00:58;;;;;;;4.70;2.30;;;8.90;99.90;;;;;;5024399;28;20026;-78
2023/01/08 01:03:25;;;;;;;4.07;2.78;;;8.90;99.90;;;;;;5010616;28;20819;-78
2023/01/08 01:06:00;;;;;;;5.20;2.20;;;8.90;99.90;;;;;;5023586;28;20498;-78
2023/01/08 01:08:26;;;;;;;4.03;2.05;;;8.90;99.90;;;;;;5010232;28;20030;-78
2023/01/08 01:10:51;;;;;;;5.50;2.00;;;8.90;99.90;;;;;;5011803;28;20038;-79
2023/01/08 01:13:17;;;;;;;4.90;2.55;;;8.90;99.90;;;;;;5010512;28;20026;-78
2023/01/08 01:15:43;;;;;;;3.85;1.83;;;8.90;99.90;;;;;;5006158;28;20041;-78
2023/01/08 01:18:09;;;;;;;4.50;2.50;;;8.90;99.90;;;;;;5010108;28;20121;-78
2023/01/08 01:20:35;;;;;;;5.07;1.75;;;8.90;99.90;;;;;;5011621;28;20029;-79
2023/01/08 01:23:02;;;;;;;2.88;1.60;;;8.90;99.90;;;;;;5010389;28;20041;-78
2023/01/08 01:25:28;;;;;;;4.93;2.25;;;8.80;99.90;;;;;;4990951;23;20051;-75
2023/01/08 01:27:53;;;;;;;2.65;1.52;;;8.90;99.90;;;;;;4952590;28;20050;-75
2023/01/08 01:30:19;;;;;;;7.75;1.85;;;8.90;99.90;;;;;;4954056;28;20424;-75
2023/01/08 01:32:45;;;;;;;6.47;2.40;;;9.00;99.90;;;;;;4968100;28;20042;-75
2023/01/08 01:35:10;;;;;;;3.85;2.05;;;9.00;99.90;;;;;;4966121;28;20057;-75
2023/01/08 01:37:36;;;;;;;4.30;2.22;;;9.00;99.90;;;;;;4972116;28;20030;-74
2023/01/08 01:40:04;;;;;;;5.20;2.15;;;9.00;99.90;;;;;;4971375;28;20487;-74
2023/01/08 01:42:39;;;;;;;3.00;1.50;;;9.00;99.90;;;;;;4992127;28;20035;-74
2023/01/08 01:45:21;;;;;;;5.93;2.20;;;9.00;99.90;;;;;;4972194;28;20046;-75
2023/01/08 01:48:12;;;;;;;4.53;2.33;;;8.90;99.90;;;;;;4971471;28;20027;-75
2023/01/08 01:50:47;;;;;;;4.50;2.83;;;8.90;99.90;;;;;;4981613;28;20099;-74
2023/01/08 01:53:27;;;;;;;4.65;1.75;;;8.90;99.90;;;;;;4966107;28;20035;-74
2023/01/08 01:55:54;;;;;;;7.72;2.10;;;8.90;99.90;;;;;;4970817;28;20444;-74
2023/01/08 01:58:23;;;;;;;4.85;2.55;;;8.90;99.90;;;;;;4962061;28;20046;-74
2023/01/08 02:00:51;;;;;;;3.65;2.67;;;8.90;99.90;;;;;;4968545;28;20041;-74
2023/01/08 02:03:26;;;;;;;4.30;2.20;;;8.90;99.90;;;;;;4971254;28;20162;-74
2023/01/08 02:06:14;;;;;;;2.28;1.60;;;8.90;99.90;;;;;;4966623;28;20047;-74
2023/01/08 02:09:29;;;;;;;2.95;1.70;;;8.90;99.90;;;;;;4963599;28;20034;-74
2023/01/08 02:12:15;;;;;;;4.25;2.13;;;8.90;99.90;;;;;;4953444;28;20042;-74
2023/01/08 02:15:27;;;;;;;5.70;2.60;;;8.80;99.90;;;;;;4969955;28;20027;-74
2023/01/08 02:18:00;;;;;;;2.28;1.50;;;8.80;99.90;;;;;;4970923;28;20070;-74
2023/01/08 02:20:40;;;;;;;4.78;1.73;;;8.80;99.90;;;;;;4970744;28;20077;-74
2023/01/08 02:23:15;;;;;;;8.15;1.85;;;8.80;99.90;;;;;;4965142;28;20034;-74
2023/01/08 02:26:06;;;;;;;3.70;1.77;;;8.80;99.90;;;;;;4966858;28;20027;-74
2023/01/08 02:29:08;;;;;;;2.78;1.67;;;8.80;99.90;;;;;;4976015;28;20030;-74
2023/01/08 02:31:38;;;;;;;5.07;2.38;;;8.70;99.90;;;;;;4955153;28;20629;-74
2023/01/08 02:34:04;;;;;;;4.25;2.03;;;8.80;99.90;;;;;;4970122;28;20050;-75
2023/01/08 02:36:37;;;;;;;6.72;1.92;;;8.80;99.90;;;;;;4971089;28;20078;-74
2023/01/08 02:39:44;;;;;;;4.00;1.90;;;8.80;99.90;;;;;;4969668;28;20121;-75
2023/01/08 02:42:35;;;;;;;3.10;1.60;;;8.80;99.90;;;;;;4963878;28;20035;-73
2023/01/08 02:45:51;;;;;;;3.60;2.15;;;8.80;99.90;;;;;;4971450;28;20662;-73
2023/01/08 02:48:38;;;;;;;4.95;2.05;;;8.90;99.90;;;;;;4974021;28;20042;-74
2023/01/08 02:51:25;;;;;;;2.80;1.63;;;8.90;99.90;;;;;;4971547;28;20051;-74
2023/01/08 02:53:58;;;;;;;2.78;1.65;;;8.90;99.90;;;;;;4966483;28;20039;-74
2023/01/08 02:56:28;;;;;;;5.05;2.08;;;8.80;99.90;;;;;;4969655;28;20100;-74
2023/01/08 02:58:57;;;;;;;5.05;2.53;;;8.90;99.90;;;;;;4953909;28;20093;-74
2023/01/08 03:01:23;;;;;;;4.68;2.50;;;8.90;99.90;;;;;;4969960;28;20035;-74
2023/01/08 03:03:55;;;;;;;6.38;1.85;;;8.90;99.90;;;;;;4969716;28;20072;-74
2023/01/08 03:06:22;;;;;;;3.63;1.50;;;8.90;99.90;;;;;;4953236;28;20031;-74
2023/01/08 03:08:52;;;;;;;2.95;2.25;;;8.90;99.90;;;;;;4973330;28;20065;-74
2023/01/08 03:11:21;;;;;;;4.28;1.83;;;9.00;99.90;;;;;;4951684;28;20062;-75
2023/01/08 03:13:54;;;;;;;4.63;2.05;;;9.00;99.90;;;;;;4953873;28;20034;-74
2023/01/08 03:16:31;;;;;;;4.10;2.25;;;8.90;99.90;;;;;;4966977;28;20042;-75
2023/01/08 03:19:11;;;;;;;4.65;2.67;;;8.90;99.90;;;;;;4954538;28;20101;-74
2023/01/08 03:21:41;;;;;;;3.95;2.30;;;8.80;99.90;;;;;;4972845;28;20145;-75
2023/01/08 03:24:09;;;;;;;6.32;2.20;;;8.80;99.90;;;;;;4972150;28;20038;-74
2023/01/08 03:26:37;;;;;;;5.82;2.08;;;8.80;99.90;;;;;;4974109;28;20034;-74
2023/01/08 03:29:05;;;;;;;3.70;2.20;;;8.80;99.90;;;;;;4973196;28;20039;-74
2023/01/08 03:31:34;;;;;;;5.43;2.42;;;8.70;99.90;;;;;;4972842;28;20173;-75
2023/01/08 03:34:02;;;;;;;5.35;2.20;;;8.60;99.90;;;;;;4973226;28;20038;-74
2023/01/08 03:36:29;;;;;;;4.32;1.63;;;8.60;99.90;;;;;;4974447;28;20406;-75
2023/01/08 03:39:04;;;;;;;4.22;2.20;;;8.50;99.90;;;;;;4975496;28;20043;-75
2023/01/08 03:41:33;;;;;;;3.78;2.42;;;8.50;99.90;;;;;;4957638;28;20030;-75
2023/01/08 03:43:59;;;;;;;4.78;2.22;;;8.60;99.90;;;;;;4974288;28;20062;-75
2023/01/08 03:46:33;;;;;;;2.90;1.45;;;8.60;99.90;;;;;;4973886;28;20054;-75
2023/01/08 03:49:00;;;;;;;7.75;2.30;;;8.70;99.90;;;;;;4974961;28;20038;-75
2023/01/08 03:51:25;;;;;;;3.75;2.15;;;8.70;99.90;;;;;;4972656;28;20039;-75
2023/01/08 03:53:57;;;;;;;2.95;1.73;;;8.70;99.90;;;;;;4956568;28;20038;-76
2023/01/08 03:56:23;;;;;;;4.50;2.10;;;8.80;99.90;;;;;;4972240;28;20031;-75
2023/01/08 03:58:48;;;;;;;2.53;1.55;;;8.90;99.90;;;;;;4948479;28;20045;-75
2023/01/08 04:01:14;;;;;;;5.32;1.70;;;8.90;99.90;;;;;;4988621;28;20427;-75
2023/01/08 04:03:40;;;;;;;3.72;1.80;;;8.90;99.90;;;;;;4951728;28;20031;-76
2023/01/08 04:06:06;;;;;;;9.48;2.53;;;9.00;99.90;;;;;;4974155;28;20623;-76
2023/01/08 04:08:31;;;;;;;3.50;1.80;;;9.00;99.90;;;;;;4978129;28;20047;-75
2023/01/08 04:10:57;;;;;;;3.05;1.75;;;9.00;99.90;;;;;;4972748;28;20546;-75
2023/01/08 04:13:23;;;;;;;5.88;2.17;;;9.00;99.90;;;;;;4972873;28;20042;-76
2023/01/08 04:15:50;;;;;;;3.72;2.10;;;9.00;99.90;;;;;;4973553;28;20039;-75
2023/01/08 04:18:17;;;;;;;2.95;2.03;;;9.00;99.90;;;;;;4963636;28;20039;-75
2023/01/08 04:20:47;;;;;;;4.15;1.98;;;8.90;99.90;;;;;;4969614;28;20037;-75
2023/01/08 04:23:13;;;;;;;3.22;1.60;;;8.80;99.90;;;;;;4972223;28;20061;-75
2023/01/08 04:25:39;;;;;;;2.30;1.52;;;8.70;99.90;;;;;;4972428;28;20573;-75
2023/01/08 04:28:04;;;;;;;5.43;2.20;;;8.70;99.90;;;;;;4976422;28;20117;-75
2023/01/08 04:30:30;;;;;;;3.97;2.08;;;8.60;99.90;;;;;;4976186;28;20475;-75
2023/01/08 04:32:56;;;;;;;3.45;1.58;;;8.60;99.90;;;;;;4971520;28;20046;-75
2023/01/08 04:35:22;;;;;;;7.75;2.65;;;8.60;99.90;;;;;;4972696;28;20035;-76
2023/01/08 04:37:48;;;;;;;2.05;1.20;;;8.60;99.90;;;;;;4971462;28;20042;-76
2023/01/08 04:40:13;;;;;;;3.42;1.70;;;8.50;99.90;;;;;;4967001;28;20046;-76
2023/01/08 04:42:39;;;;;;;3.58;2.05;;;8.50;99.90;;;;;;4965521;28;20031;-76
2023/01/08 04:45:06;;;;;;;3.30;1.73;;;8.50;99.90;;;;;;4966246;28;20944;-76
2023/01/08 04:47:32;;;;;;;8.15;2.25;;;8.50;99.90;;;;;;4967983;28;20023;-76
2023/01/08 04:49:58;;;;;;;4.50;2.53;;;8.50;99.90;;;;;;4969618;28;20070;-76
2023/01/08 04:52:23;;;;;;;3.47;1.52;;;8.50;99.90;;;;;;4967903;28;20118;-76
2023/01/08 04:54:49;;;;;;;1.92;1.35;;;8.50;99.90;;;;;;4939926;28;20034;-76
2023/01/08 04:57:15;;;;;;;6.68;1.90;;;8.50;99.90;;;;;;4973294;28;20053;-77
2023/01/08 04:59:41;;;;;;;3.55;1.95;;;8.50;99.90;;;;;;4967345;28;20038;-77
2023/01/08 05:02:06;;;;;;;3.55;2.08;;;8.50;99.90;;;;;;4966857;28;20046;-77
2023/01/08 05:04:32;;;;;;;4.05;1.50;;;8.40;99.90;;;;;;4972781;28;20518;-77
2023/01/08 05:06:58;;;;;;;2.85;1.98;;;8.30;99.90;;;;;;4972369;28;20030;-77
2023/01/08 05:09:23;;;;;;;3.35;1.98;;;8.30;99.90;;;;;;4971418;28;20491;-77
2023/01/08 05:11:49;;;;;;;4.40;1.75;;;8.20;99.90;;;;;;4972364;28;20038;-77
2023/01/08 05:14:15;;;;;;;4.68;2.05;;;8.30;99.90;;;;;;4963394;28;20035;-77
2023/01/08 05:16:41;;;;;;;2.95;1.55;;;8.30;99.90;;;;;;4962210;28;20030;-77
2023/01/08 05:19:06;;;;;;;3.53;1.90;;;8.30;99.90;;;;;;4965156;28;20031;-77
2023/01/08 05:21:32;;;;;;;3.03;1.75;;;8.20;99.90;;;;;;4973801;28;20487;-77
2023/01/08 05:23:58;;;;;;;5.50;2.20;;;8.20;99.90;;;;;;4981385;28;20069;-76
2023/01/08 05:26:24;;;;;;;3.22;1.77;;;8.20;99.90;;;;;;4971986;28;20506;-76
2023/01/08 05:28:50;;;;;;;8.60;2.63;;;8.20;99.90;;;;;;4970711;28;20070;-75
2023/01/08 05:31:16;;;;;;;7.50;2.33;;;8.20;99.90;;;;;;4971892;28;20613;-76
2023/01/08 05:33:41;;;;;;;6.57;2.35;;;8.10;99.90;;;;;;4970968;28;20042;-75
2023/01/08 05:36:10;;;;;;;4.65;2.60;;;8.10;99.90;;;;;;4970676;28;20045;-75
2023/01/08 05:38:37;;;;;;;2.92;2.10;;;8.10;99.90;;;;;;4975660;28;20058;-76
2023/01/08 05:41:04;;;;;;;3.83;1.80;;;8.00;99.90;;;;;;4967793;28;20379;-76
2023/01/08 05:43:30;;;;;;;6.35;1.95;;;8.00;99.90;;;;;;4961506;28;20031;-75
2023/01/08 05:46:00;;;;;;;2.90;1.67;;;8.00;99.90;;;;;;4970786;28;20217;-75
2023/01/08 05:48:28;;;;;;;4.23;1.93;;;8.00;99.90;;;;;;4975021;28;20061;-75
2023/01/08 05:50:54;;;;;;;5.35;2.20;;;8.00;99.90;;;;;;4972036;28;20357;-75
2023/01/08 05:53:20;;;;;;;4.78;1.65;;;8.00;99.90;;;;;;4975298;28;20045;-75
2023/01/08 05:55:46;;;;;;;3.55;1.95;;;7.90;99.90;;;;;;4971987;28;20039;-75
2023/01/08 05:58:11;;;;;;;2.15;1.80;;;8.00;99.90;;;;;;4974842;28;20039;-75
2023/01/08 06:00:38;;;;;;;2.88;1.65;;;7.90;99.90;;;;;;4970750;28;20123;-76
2023/01/08 06:03:04;;;;;;;3.30;1.85;;;7.90;99.90;;;;;;4971333;28;20030;-75
2023/01/08 06:05:31;;;;;;;6.68;2.70;;;7.90;99.90;;;;;;4971736;28;20058;-74
2023/01/08 06:07:58;;;;;;;2.92;1.80;;;7.90;99.90;;;;;;4970237;28;20554;-75
2023/01/08 06:10:24;;;;;;;7.72;2.92;;;7.90;99.90;;;;;;4971639;28;20056;-75
2023/01/08 06:12:50;;;;;;;10.43;2.20;;;7.90;99.90;;;;;;4974901;28;20090;-75
2023/01/08 06:15:17;;;;;;;2.92;1.70;;;7.90;99.90;;;;;;4971636;28;20435;-75
2023/01/08 06:17:43;;;;;;;5.63;2.75;;;7.90;99.90;;;;;;4948503;28;20035;-75
2023/01/08 06:20:09;;;;;;;5.70;2.03;;;7.90;99.90;;;;;;4971375;28;20414;-75
2023/01/08 06:22:36;;;;;;;5.18;1.95;;;7.90;99.90;;;;;;4970979;28;20027;-75
2023/01/08 06:25:02;;;;;;;3.88;1.92;;;7.90;99.90;;;;;;4960674;28;20074;-75
2023/01/08 06:27:28;;;;;;;8.57;2.92;;;7.90;99.90;;;;;;4966779;28;20039;-75
2023/01/08 06:29:54;;;;;;;5.10;2.67;;;8.00;99.90;;;;;;4970367;28;20376;-75
2023/01/08 06:32:19;;;;;;;3.55;1.67;;;8.00;99.90;;;;;;4959038;28;20121;-75
2023/01/08 06:34:45;;;;;;;4.53;2.33;;;8.00;99.90;;;;;;4971321;28;20450;-75
2023/01/08 06:37:11;;;;;;;5.90;2.05;;;8.00;99.90;;;;;;4970315;28;20050;-75
2023/01/08 06:39:37;;;;;;;4.50;2.42;;;8.00;99.90;;;;;;4971294;28;20027;-75
2023/01/08 06:42:02;;;;;;;9.52;3.03;;;8.00;99.90;;;;;;4965848;28;20053;-76
2023/01/08 06:44:28;;;;;;;5.07;2.35;;;8.00;99.90;;;;;;4971198;28;20042;-75
2023/01/08 06:46:54;;;;;;;10.38;1.65;;;8.10;99.90;;;;;;4970586;28;20031;-75
2023/01/08 06:49:21;;;;;;;5.03;2.05;;;8.10;99.90;;;;;;4971515;28;20042;-75
2023/01/08 06:51:46;;;;;;;10.88;2.22;;;8.10;99.90;;;;;;4970814;28;20043;-75
2023/01/08 06:54:12;;;;;;;4.18;2.30;;;8.10;99.90;;;;;;4969932;28;20047;-75
2023/01/08 06:56:38;;;;;;;5.47;1.77;;;8.10;99.90;;;;;;4970548;28;20077;-74
2023/01/08 06:59:04;;;;;;;4.57;2.17;;;8.20;99.90;;;;;;4971560;28;20036;-74
2023/01/08 07:01:30;;;;;;;6.40;2.22;;;8.20;99.90;;;;;;4977108;28;20031;-74
2023/01/08 07:03:55;;;;;;;4.35;2.30;;;8.20;99.90;;;;;;4977359;28;20031;-75
2023/01/08 07:06:22;;;;;;;3.47;1.95;;;8.20;99.90;;;;;;4974587;28;20031;-75
2023/01/08 07:08:48;;;;;;;4.28;2.88;;;8.20;99.90;;;;;;4973827;28;20100;-75
2023/01/08 07:11:14;;;;;;;4.55;2.50;;;8.20;99.90;;;;;;4973828;28;20444;-76
2023/01/08 07:13:40;;;;;;;4.18;2.20;;;8.20;99.90;;;;;;4979260;28;20034;-76
2023/01/08 07:16:12;;;;;;;5.53;2.25;;;8.20;99.90;;;;;;4974413;28;20045;-76
2023/01/08 07:18:38;;;;;;;6.25;1.92;;;8.20;99.90;;;;;;4969385;28;20526;-74
2023/01/08 07:21:06;;;;;;;5.25;2.22;;;8.20;99.90;;;;;;4973856;28;20030;-74
2023/01/08 07:23:32;;;;;;;5.22;2.03;;;8.20;99.90;;;;;;4980053;28;20035;-73
2023/01/08 07:26:02;;;;;;;5.43;2.63;;;8.30;99.90;;;;;;5002680;23;20047;-82
2023/01/08 07:28:28;;;;;;;6.03;2.72;;;8.30;99.90;;;;;;4993699;28;20040;-76
2023/01/08 07:30:54;;;;;;;5.75;2.63;;;8.30;99.90;;;;;;4993840;28;20034;-76
2023/01/08 07:33:20;;;;;;;3.78;1.80;;;8.30;99.90;;;;;;4976532;28;20041;-82
2023/01/08 07:35:55;;;;;;;3.40;2.05;;;8.30;99.90;;;;;;4992684;28;20046;-79
2023/01/08 07:38:22;;;;;;;4.55;2.33;;;8.30;99.90;;;;;;4997609;28;22021;-76
2023/01/08 07:40:47;;;;;;;4.43;1.75;;;8.30;99.90;;;;;;4985678;28;20026;-77
2023/01/08 07:43:14;;;;;;;2.80;1.60;;;8.30;99.90;;;;;;5008888;28;20093;-80
2023/01/08 07:45:40;;;;;;;4.43;2.38;;;8.30;99.90;;;;;;4993098;28;20034;-75
2023/01/08 07:48:06;;;;;;;3.65;1.90;;;8.30;99.90;;;;;;4994796;28;20378;-74
2023/01/08 07:50:32;;;;;;;3.50;1.63;;;8.30;99.90;;;;;;4989375;28;20026;-75
2023/01/08 07:52:59;;;;;;;4.18;1.55;;;8.40;99.90;;;;;;4993411;28;20030;-76
2023/01/08 07:55:27;;;;;;;3.83;1.92;;;8.30;99.90;;;;;;5006783;28;20641;-75
2023/01/08 07:57:53;;;;;;;3.28;1.48;;;8.40;99.90;;;;;;4993118;28;20034;-74
2023/01/08 08:00:19;;;;;;;3.10;1.35;;;8.40;99.90;;;;;;4992640;28;20065;-76
2023/01/08 08:02:45;;;;;;;2.78;2.03;;;8.40;99.90;;;;;;4995936;28;20030;-75
2023/01/08 08:05:11;;;;;;;7.85;2.08;;;8.40;99.90;;;;;;4991574;28;20372;-76
2023/01/08 08:07:36;;;;;;;4.10;1.83;;;8.40;99.90;;;;;;4992893;28;20030;-76
2023/01/08 08:10:04;;;;;;;3.53;1.73;;;8.40;99.90;;;;;;4992473;28;20034;-74
2023/01/08 08:12:30;;;;;;;4.93;2.22;;;8.40;99.90;;;;;;4991764;28;20027;-75
2023/01/08 08:14:55;;;;;;;5.47;2.85;;;8.40;99.90;;;;;;4987596;28;20495;-75
2023/01/08 08:17:21;;;;;;;4.78;2.15;;;8.30;99.90;;;;;;4993761;28;20038;-74
2023/01/08 08:19:47;;;;;;;9.32;2.75;;;8.30;99.90;;;;;;4988598;28;20089;-74
2023/01/08 08:22:13;;;;;;;5.20;3.03;;;8.30;99.90;;;;;;4996494;28;20084;-75
2023/01/08 08:24:39;;;;;;;5.20;2.13;;;8.30;99.90;;;;;;5005058;28;20088;-75
2023/01/08 08:27:05;;;;;;;3.83;2.15;;;8.30;99.90;;;;;;4992571;28;20554;-75
2023/01/08 08:29:30;;;;;;;3.67;2.28;;;8.20;99.90;;;;;;4992367;28;20687;-75
2023/01/08 08:31:56;;;;;;;4.43;1.90;;;8.20;99.90;;;;;;4991688;28;20049;-76
2023/01/08 08:34:22;;;;;;;4.55;2.83;;;8.10;99.90;;;;;;4991068;28;20558;-74
2023/01/08 08:36:48;;;;;;;4.75;2.38;;;8.10;99.90;;;;;;4993834;28;20034;-73
2023/01/08 08:39:15;;;;;;;4.53;2.38;;;8.10;99.90;;;;;;4982669;28;20039;-74
2023/01/08 08:41:41;;;;;;;3.03;1.83;;;8.00;99.90;;;;;;4981529;28;20644;-75
2023/01/08 08:44:08;;;;;;;5.18;2.38;;;8.10;99.90;;;;;;4990535;28;20027;-74
2023/01/08 08:46:34;;;;;;;3.42;2.08;;;8.10;99.90;;;;;;4986687;28;20102;-76
2023/01/08 08:49:00;;;;;;;4.82;2.58;;;8.10;99.90;;;;;;4992123;28;20034;-78
2023/01/08 08:51:26;;;;;;;4.95;2.33;;;8.10;99.90;;;;;;4990849;28;20442;-75
2023/01/08 08:53:52;;;;;;;4.35;2.67;;;8.10;99.90;;;;;;4991739;28;20158;-74
2023/01/08 08:56:18;;;;;;;4.10;2.00;;;8.10;99.90;;;;;;4991960;28;20113;-73
2023/01/08 08:58:44;;;;;;;3.70;2.10;;;8.10;99.90;;;;;;4990704;28;20038;-74
2023/01/08 09:01:10;;;;;;;4.43;2.58;;;8.10;99.90;;;;;;4990596;28;20493;-74
2023/01/08 09:03:37;;;;;;;3.92;2.50;;;8.10;99.90;;;;;;4988785;28;20092;-73
2023/01/08 09:06:03;;;;;;;3.90;2.72;;;8.10;99.90;;;;;;4991351;28;20061;-74
2023/01/08 09:08:29;;;;;;;5.05;2.53;;;8.10;99.90;;;;;;4989769;28;20490;-75
2023/01/08 09:10:55;;;;;;;4.85;2.15;;;8.20;99.90;;;;;;4974614;28;20032;-75
2023/01/08 09:13:20;;;;;;;6.25;2.30;;;8.20;99.90;;;;;;4991321;28;20038;-73
2023/01/08 09:15:46;;;;;;;3.28;1.88;;;8.20;99.90;;;;;;4983704;28;20517;-73
2023/01/08 09:18:12;;;;;;;3.78;1.70;;;8.20;99.90;;;;;;4990839;28;20113;-73
2023/01/08 09:20:38;;;;;;;4.35;2.03;;;8.20;99.90;;;;;;4991944;28;20058;-74
2023/01/08 09:23:04;;;;;;;4.72;1.60;;;8.30;99.90;;;;;;4991039;28;20386;-75
2023/01/08 09:25:30;;;;;;;6.20;2.65;;;8.30;99.90;;;;;;4991249;28;20036;-74
2023/01/08 09:28:01;;;;;;;3.53;2.08;;;8.30;99.90;;;;;;4985757;28;20027;-74
2023/01/08 09:30:28;;;;;;;9.63;2.92;;;8.40;99.90;;;;;;4991476;28;20041;-75
2023/01/08 09:33:02;;;;;;;8.30;2.40;;;8.40;99.90;;;;;;4991050;28;20030;-74
2023/01/08 09:35:28;;;;;;;6.63;2.97;;;8.50;99.90;;;;;;4991242;28;20030;-72
2023/01/08 09:37:55;;;;;;;5.55;1.85;;;8.50;99.90;;;;;;4989349;28;20038;-75
2023/01/08 09:40:52;;;;;;;8.05;2.58;;;8.50;99.90;;;;;;4991385;28;20086;-73
2023/01/08 09:43:21;;;;;;;8.18;2.80;;;8.60;99.90;;;;;;4984141;28;20517;-74
2023/01/08 09:45:55;;;;;;;4.95;2.25;;;8.60;99.90;;;;;;4981865;28;20114;-75
2023/01/08 09:48:29;;;;;;;3.90;1.92;;;8.60;99.90;;;;;;4973426;28;20039;-76
2023/01/08 09:50:56;;;;;;;4.38;2.40;;;8.70;99.90;;;;;;4989426;28;20034;-74
2023/01/08 09:53:23;;;;;;;4.38;2.10;;;8.80;99.90;;;;;;4986777;28;20058;-70
2023/01/08 09:56:00;;;;;;;3.22;2.20;;;8.80;99.90;;;;;;4994914;28;20053;-70
2023/01/08 09:59:00;;;;;;;3.40;2.28;;;8.80;99.90;;;;;;4983037;28;20057;-70
2023/01/08 10:01:30;;;;;;;7.38;2.53;;;8.80;99.90;;;;;;4940754;28;20042;-70
2023/01/08 10:04:10;;;;;;;5.00;2.20;;;8.90;99.90;;;;;;4986434;28;20080;-70
2023/01/08 10:06:36;;;;;;;10.23;2.88;;;9.00;99.90;;;;;;4978988;28;20034;-70
2023/01/08 10:09:02;;;;;;;7.13;2.42;;;9.00;99.90;;;;;;4989725;28;20035;-71
2023/01/08 10:11:39;;;;;;;2.92;1.15;;;9.00;99.90;;;;;;4990722;28;20042;-73
2023/01/08 10:14:16;;;;;;;20.92;8.65;;;9.00;99.90;;;;;;4989040;28;20112;-73
2023/01/08 10:17:02;;;;;;;5.88;2.28;;;9.10;99.90;;;;;;4991643;28;20583;-73
2023/01/08 10:19:28;;;;;;;2.65;1.65;;;9.10;99.90;;;;;;4978723;28;20039;-73
2023/01/08 10:21:55;;;;;;;2.60;1.40;;;9.20;99.90;;;;;;4990305;28;20116;-73
2023/01/08 10:24:38;;;;;;;6.60;1.75;;;9.20;99.90;;;;;;4989944;28;20041;-73
2023/01/08 10:27:16;;;;;;;2.78;1.33;;;9.20;99.90;;;;;;4990352;28;20034;-73
2023/01/08 10:29:42;;;;;;;3.10;1.50;;;9.20;99.90;;;;;;5005066;28;20042;-73
2023/01/08 10:32:25;;;;;;;3.30;1.40;;;9.30;99.90;;;;;;4990375;28;20044;-73
2023/01/08 10:34:54;;;;;;;3.05;1.65;;;9.30;99.90;;;;;;4991907;28;20031;-72
2023/01/08 10:37:41;;;;;;;2.13;1.27;;;9.20;99.90;;;;;;4993314;28;20038;-73
2023/01/08 10:40:32;;;;;;;4.15;1.70;;;9.20;99.90;;;;;;4992758;28;20039;-73
2023/01/08 10:43:20;;;;;;;1.27;0.55;;;9.30;99.90;;;;;;4993665;28;20052;-74
2023/01/08 10:46:01;;;;;;;2.05;0.95;;;9.30;99.90;;;;;;4992683;28;20030;-73
2023/01/08 10:48:57;;;;;;;1.67;0.90;;;9.40;99.90;;;;;;5002389;28;20512;-73
2023/01/08 10:51:29;;;;;;;1.95;1.00;;;9.50;99.90;;;;;;4987324;28;20409;-73
2023/01/08 10:54:00;;;;;;;5.80;1.40;;;9.50;99.90;;;;;;5008931;28;20088;-74
2023/01/08 10:56:40;;;;;;;3.13;1.30;;;9.60;99.90;;;;;;4986166;28;20038;-73
2023/01/08 10:59:21;;;;;;;2.05;1.50;;;9.70;99.90;;;;;;4993656;28;20505;-72
2023/01/08 11:01:50;;;;;;;2.10;0.88;;;9.60;99.90;;;;;;4996811;28;20034;-73
2023/01/08 11:04:31;;;;;;;1.63;0.93;;;9.70;99.90;;;;;;4992409;28;20058;-73
2023/01/08 11:07:05;;;;;;;1.58;0.95;;;9.70;99.90;;;;;;4993440;28;20105;-73
2023/01/08 11:09:48;;;;;;;8.02;1.33;;;9.80;99.90;;;;;;4992574;28;20042;-73
2023/01/08 11:12:38;;;;;;;2.53;0.88;;;10.10;99.90;;;;;;4992745;28;20105;-74
2023/01/08 11:15:18;;;;;;;2.97;1.08;;;10.30;99.90;;;;;;4982613;28;20039;-73
2023/01/08 11:17:45;;;;;;;1.70;0.80;;;10.70;99.90;;;;;;4982183;28;20030;-74
2023/01/08 11:20:29;;;;;;;2.20;1.02;;;10.80;99.90;;;;;;4991532;28;20049;-73
2023/01/08 11:23:26;;;;;;;1.67;0.85;;;11.10;99.90;;;;;;4991961;28;20069;-73
2023/01/08 11:26:04;;;;;;;3.22;1.10;;;11.00;99.90;;;;;;4980739;28;20125;-73
2023/01/08 11:28:56;;;;;;;1.67;1.15;;;10.80;99.90;;;;;;5008700;28;20034;-73
2023/01/08 11:31:42;;;;;;;2.22;1.30;;;10.70;99.90;;;;;;4986779;28;20034;-72
2023/01/08 11:34:54;;;;;;;3.40;1.17;;;10.60;99.90;;;;;;5007663;28;20113;-72
2023/01/08 11:37:44;;;;;;;1.23;0.85;;;10.70;99.90;;;;;;4934257;28;20038;-72
2023/01/08 11:40:14;;;;;;;1.10;0.82;;;10.70;99.90;;;;;;4985720;28;20749;-72
2023/01/08 11:42:46;;;;;;;2.35;0.90;;;10.90;99.90;;;;;;5008892;28;20030;-71
2023/01/08 11:45:30;;;;;;;5.03;1.00;;;10.90;99.90;;;;;;4984707;28;20037;-72
2023/01/08 11:48:13;;;;;;;2.85;0.82;;;10.90;99.90;;;;;;4991805;28;20031;-72
2023/01/08 11:51:18;;;;;;;1.92;0.93;;;10.70;99.90;;;;;;4992685;28;20034;-72
2023/01/08 11:54:11;;;;;;;2.33;1.08;;;10.80;99.90;;;;;;5005445;28;20054;-73
2023/01/08 11:56:39;;;;;;;1.25;0.90;;;10.80;99.90;;;;;;4988684;28;20038;-73
2023/01/08 11:59:35;;;;;;;1.17;0.85;;;10.70;99.90;;;;;;4976574;28;20122;-72
2023/01/08 12:02:12;;;;;;;1.80;1.13;;;10.60;99.90;;;;;;4991784;28;20092;-72
2023/01/08 12:05:19;;;;;;;3.03;1.02;;;10.60;99.90;;;;;;4991040;28;20096;-70
2023/01/08 12:08:02;;;;;;;2.67;0.95;;;10.50;99.90;;;;;;4988350;28;20158;-72
2023/01/08 12:10:44;;;;;;;2.45;1.05;;;10.50;99.90;;;;;;4993914;28;20661;-73
2023/01/08 12:13:38;;;;;;;1.10;0.65;;;10.50;99.90;;;;;;4993107;28;20048;-72
2023/01/08 12:17:04;;;;;;;1.50;0.93;;;10.60;99.90;;;;;;4983879;28;20101;-73
2023/01/08 12:19:55;;;;;;;1.05;0.70;;;10.60;99.90;;;;;;4965013;28;20062;-73
2023/01/08 12:22:45;;;;;;;2.77;0.80;;;10.70;99.90;;;;;;4984683;28;20026;-72
2023/01/08 12:25:51;;;;;;;1.25;0.80;;;10.70;99.90;;;;;;4992236;28;20034;-72
2023/01/08 12:29:04;;;;;;;1.40;0.70;;;10.60;99.90;;;;;;4992712;28;20027;-73
2023/01/08 12:32:09;;;;;;;2.72;0.95;;;10.60;99.90;;;;;;4992276;28;20045;-74
2023/01/08 12:35:13;;;;;;;4.63;1.08;;;10.70;99.90;;;;;;4986029;28;20034;-74
2023/01/08 12:37:58;;;;;;;4.70;1.60;;;10.90;99.90;;;;;;4974881;28;20053;-73
2023/01/08 12:40:42;;;;;;;4.90;0.90;;;10.90;99.90;;;;;;5007243;28;20173;-73
2023/01/08 12:43:20;;;;;;;1.58;0.90;;;10.90;99.90;;;;;;4991362;28;20034;-73
2023/01/08 12:45:51;;;;;;;1.08;0.60;;;10.90;99.90;;;;;;4985048;28;20036;-72
2023/01/08 12:48:24;;;;;;;1.02;0.57;;;10.90;99.90;;;;;;4982996;28;20398;-72
2023/01/08 12:51:18;;;;;;;0.63;0.50;;;11.00;99.90;;;;;;4989669;28;20495;-73
2023/01/08 12:54:02;;;;;;;2.67;0.82;;;11.00;99.90;;;;;;4992641;28;20548;-72
2023/01/08 12:56:49;;;;;;;1.98;0.93;;;11.00;99.90;;;;;;4991644;28;20035;-73
2023/01/08 12:59:41;;;;;;;3.42;0.93;;;10.90;99.90;;;;;;4987878;28;20042;-73
2023/01/08 13:02:46;;;;;;;0.55;0.55;;;10.90;99.90;;;;;;4981135;28;20036;-73
2023/01/08 13:05:16;;;;;;;1.27;0.98;;;10.90;99.90;;;;;;4986885;28;20113;-73
2023/01/08 13:07:46;;;;;;;0.67;0.40;;;10.90;99.90;;;;;;4987033;28;20577;-72
2023/01/08 13:10:31;;;;;;;2.63;0.77;;;10.90;99.90;;;;;;5003140;28;20030;-73
2023/01/08 13:13:00;;;;;;;3.55;1.13;;;10.90;99.90;;;;;;4991844;28;20076;-73
2023/01/08 13:15:29;;;;;;;0.65;0.43;;;10.80;99.90;;;;;;4983344;28;20092;-73
2023/01/08 13:18:01;;;;;;;1.15;0.65;;;10.80;99.90;;;;;;4993013;28;20058;-73
2023/01/08 13:20:30;;;;;;;0.57;0.45;;;10.60;99.90;;;;;;4990050;28;20048;-72
2023/01/08 13:23:03;;;;;;;2.58;0.95;;;10.70;99.90;;;;;;4992886;28;20030;-74